sensor_id;sensor_type;location;lat;lon;timestamp;pressure;altitude;pressure_sealevel;temperature;humidity
71772;BME280;59606;52.138;5.424;2023-04-07T00:02:00;101571.78;;;8.16;100.00
71772;BME280;59606;52.138;5.424;2023-04-07T00:04:26;101575.22;;;8.16;100.00
71772;BME280;59606;52.138;5.424;2023-04-07T00:06:53;101580.41;;;8.16;100.00
71772;BME280;59606;52.138;5.424;2023-04-07T00:09:20;101577.81;;;8.16;100.00
71772;BME280;59606;52.138;5.424;2023-04-07T00:11:47;101580.41;;;8.16;100.00
71772;BME280;59606;52.138;5.424;2023-04-07T00:14:14;101582.19;;;8.16;100.00
71772;BME280;59606;52.138;5.424;2023-04-07T00:16:40;101577.84;;;8.15;100.00
71772;BME280;59606;52.138;5.424;2023-04-07T00:19:07;101585.72;;;8.13;100.00
71772;BME280;59606;52.138;5.424;2023-04-07T00:21:33;101586.63;;;8.12;100.00
71772;BME280;59606;52.138;5.424;2023-04-07T00:24:00;101582.31;;;8.11;100.00
71772;BME280;59606;52.138;5.424;2023-04-07T00:26:29;101586.66;;;8.11;100.00
71772;BME280;59606;52.138;5.424;2023-04-07T00:28:58;101588.41;;;8.10;100.00
71772;BME280;59606;52.138;5.424;2023-04-07T00:31:24;101590.16;;;8.10;100.00
71772;BME280;59606;52.138;5.424;2023-04-07T00:33:51;101595.34;;;8.10;100.00
71772;BME280;59606;52.138;5.424;2023-04-07T00:36:18;101585.91;;;8.07;100.00
71772;BME280;59606;52.138;5.424;2023-04-07T00:38:45;101592.81;;;8.08;100.00
71772;BME280;59606;52.138;5.424;2023-04-07T00:41:11;101590.25;;;8.07;100.00
71772;BME280;59606;52.138;5.424;2023-04-07T00:43:38;101590.25;;;8.07;100.00
71772;BME280;59606;52.138;5.424;2023-04-07T00:46:05;101587.72;;;8.05;100.00
71772;BME280;59606;52.138;5.424;2023-04-07T00:48:31;101586.00;;;8.04;100.00
71772;BME280;59606;52.138;5.424;2023-04-07T00:50:58;101577.38;;;8.03;100.00
71772;BME280;59606;52.138;5.424;2023-04-07T00:53:24;101580.81;;;8.04;100.00
71772;BME280;59606;52.138;5.424;2023-04-07T00:55:51;101584.31;;;8.03;100.00
71772;BME280;59606;52.138;5.424;2023-04-07T00:58:17;101592.09;;;8.03;100.00
71772;BME280;59606;52.138;5.424;2023-04-07T01:01:01;101587.81;;;8.02;100.00
71772;BME280;59606;52.138;5.424;2023-04-07T01:03:33;101591.25;;;8.02;100.00
71772;BME280;59606;52.138;5.424;2023-04-07T01:06:04;101587.72;;;8.05;100.00
71772;BME280;59606;52.138;5.424;2023-04-07T01:09:02;101589.44;;;8.04;100.00
71772;BME280;59606;52.138;5.424;2023-04-07T01:11:42;101587.72;;;8.05;100.00
71772;BME280;59606;52.138;5.424;2023-04-07T01:14:10;101587.72;;;8.05;100.00
71772;BME280;59606;52.138;5.424;2023-04-07T01:16:45;101587.75;;;8.03;100.00
71772;BME280;59606;52.138;5.424;2023-04-07T01:19:33;101588.59;;;8.04;100.00
71772;BME280;59606;52.138;5.424;2023-04-07T01:22:00;101589.50;;;8.03;100.00
71772;BME280;59606;52.138;5.424;2023-04-07T01:30:22;101592.16;;;8.01;100.00
71772;BME280;59606;52.138;5.424;2023-04-07T01:32:51;101586.97;;;8.01;100.00
71772;BME280;59606;52.138;5.424;2023-04-07T01:35:18;101589.56;;;8.01;100.00
71772;BME280;59606;52.138;5.424;2023-04-07T01:37:46;101595.59;;;8.02;100.00
71772;BME280;59606;52.138;5.424;2023-04-07T01:40:16;101588.69;;;8.01;100.00
71772;BME280;59606;52.138;5.424;2023-04-07T01:42:44;101591.28;;;8.01;100.00
71772;BME280;59606;52.138;5.424;2023-04-07T01:45:11;101587.84;;;8.00;100.00
71772;BME280;59606;52.138;5.424;2023-04-07T01:47:38;101589.59;;;8.00;100.00
71772;BME280;59606;52.138;5.424;2023-04-07T01:50:06;101587.84;;;8.00;100.00
71772;BME280;59606;52.138;5.424;2023-04-07T01:52:35;101591.34;;;7.99;100.00
71772;BME280;59606;52.138;5.424;2023-04-07T01:55:05;101589.66;;;7.98;100.00
71772;BME280;59606;52.138;5.424;2023-04-07T01:57:32;101591.38;;;7.98;100.00
71772;BME280;59606;52.138;5.424;2023-04-07T01:59:58;101591.38;;;7.98;100.00
71772;BME280;59606;52.138;5.424;2023-04-07T02:02:25;101587.94;;;7.97;100.00
71772;BME280;59606;52.138;5.424;2023-04-07T02:04:55;101586.19;;;7.98;100.00
71772;BME280;59606;52.138;5.424;2023-04-07T02:07:27;101592.28;;;7.97;100.00
71772;BME280;59606;52.138;5.424;2023-04-07T02:09:57;101594.84;;;7.98;100.00
71772;BME280;59606;52.138;5.424;2023-04-07T02:12:25;101588.78;;;7.98;100.00
71772;BME280;59606;52.138;5.424;2023-04-07T02:14:56;101590.44;;;8.00;100.00
71772;BME280;59606;52.138;5.424;2023-04-07T02:17:24;101586.97;;;8.01;100.00
71772;BME280;59606;52.138;5.424;2023-04-07T02:19:52;101581.78;;;8.01;100.00
71772;BME280;59606;52.138;5.424;2023-04-07T02:22:21;101592.19;;;8.00;100.00
71772;BME280;59606;52.138;5.424;2023-04-07T02:24:47;101593.88;;;8.01;100.00
71772;BME280;59606;52.138;5.424;2023-04-07T02:27:14;101596.47;;;8.01;100.00
71772;BME280;59606;52.138;5.424;2023-04-07T02:29:41;101599.03;;;8.02;100.00
71772;BME280;59606;52.138;5.424;2023-04-07T02:32:07;101599.03;;;8.02;100.00
71772;BME280;59606;52.138;5.424;2023-04-07T02:34:34;101596.44;;;8.02;100.00
71772;BME280;59606;52.138;5.424;2023-04-07T02:37:01;101601.63;;;8.02;100.00
71772;BME280;59606;52.138;5.424;2023-04-07T02:39:28;101599.03;;;8.02;100.00
71772;BME280;59606;52.138;5.424;2023-04-07T02:41:54;101593.03;;;8.00;100.00
71772;BME280;59606;52.138;5.424;2023-04-07T02:44:21;101594.78;;;8.00;100.00
71772;BME280;59606;52.138;5.424;2023-04-07T02:46:47;101595.63;;;8.00;100.00
71772;BME280;59606;52.138;5.424;2023-04-07T02:49:14;101593.03;;;8.00;100.00
71772;BME280;59606;52.138;5.424;2023-04-07T02:51:40;101602.56;;;8.00;100.00
71772;BME280;59606;52.138;5.424;2023-04-07T02:54:07;101595.63;;;8.00;100.00
71772;BME280;59606;52.138;5.424;2023-04-07T02:56:34;101599.97;;;8.00;100.00
71772;BME280;59606;52.138;5.424;2023-04-07T02:59:01;101598.22;;;8.00;100.00
71772;BME280;59606;52.138;5.424;2023-04-07T03:01:27;101595.63;;;8.00;100.00
71772;BME280;59606;52.138;5.424;2023-04-07T03:03:54;101601.66;;;8.01;100.00
71772;BME280;59606;52.138;5.424;2023-04-07T03:06:21;101607.72;;;8.01;100.00
71772;BME280;59606;52.138;5.424;2023-04-07T03:08:47;101603.38;;;8.02;100.00
71772;BME280;59606;52.138;5.424;2023-04-07T03:11:14;101603.38;;;8.02;100.00
71772;BME280;59606;52.138;5.424;2023-04-07T03:13:40;101604.31;;;7.99;100.00
71772;BME280;59606;52.138;5.424;2023-04-07T03:16:07;101604.31;;;7.99;100.00
71772;BME280;59606;52.138;5.424;2023-04-07T03:18:33;101606.91;;;7.99;100.00
71772;BME280;59606;52.138;5.424;2023-04-07T03:21:00;101600.88;;;7.99;100.00
71772;BME280;59606;52.138;5.424;2023-04-07T03:23:26;101606.00;;;8.00;100.00
71772;BME280;59606;52.138;5.424;2023-04-07T03:25:56;101602.56;;;8.00;100.00
71772;BME280;59606;52.138;5.424;2023-04-07T03:28:23;101606.00;;;8.00;100.00
71772;BME280;59606;52.138;5.424;2023-04-07T03:30:49;101606.91;;;7.99;100.00
71772;BME280;59606;52.138;5.424;2023-04-07T03:33:16;101600.88;;;7.99;100.00
71772;BME280;59606;52.138;5.424;2023-04-07T03:35:43;101606.94;;;7.98;100.00
71772;BME280;59606;52.138;5.424;2023-04-07T03:38:09;101612.13;;;7.98;100.00
71772;BME280;59606;52.138;5.424;2023-04-07T03:40:36;101606.94;;;7.98;100.00
71772;BME280;59606;52.138;5.424;2023-04-07T03:43:03;101609.50;;;7.99;100.00
71772;BME280;59606;52.138;5.424;2023-04-07T03:45:32;101615.59;;;7.98;100.00
71772;BME280;59606;52.138;5.424;2023-04-07T03:47:58;101618.22;;;7.98;100.00
71772;BME280;59606;52.138;5.424;2023-04-07T03:50:26;101605.22;;;7.98;100.00
71772;BME280;59606;52.138;5.424;2023-04-07T03:52:52;101610.41;;;7.98;100.00
71772;BME280;59606;52.138;5.424;2023-04-07T03:55:19;101611.28;;;7.97;100.00
71772;BME280;59606;52.138;5.424;2023-04-07T03:57:45;101612.13;;;7.98;100.00
71772;BME280;59606;52.138;5.424;2023-04-07T04:00:12;101610.44;;;7.97;100.00
71772;BME280;59606;52.138;5.424;2023-04-07T04:02:39;101606.09;;;7.97;100.00
71772;BME280;59606;52.138;5.424;2023-04-07T04:05:05;101606.09;;;7.97;100.00
71772;BME280;59606;52.138;5.424;2023-04-07T04:07:32;101616.47;;;7.97;100.00
71772;BME280;59606;52.138;5.424;2023-04-07T04:09:59;101604.41;;;7.96;100.00
71772;BME280;59606;52.138;5.424;2023-04-07T04:12:25;101609.53;;;7.98;100.00
71772;BME280;59606;52.138;5.424;2023-04-07T04:14:52;101606.09;;;7.97;100.00
71772;BME280;59606;52.138;5.424;2023-04-07T04:17:19;101613.09;;;7.95;100.00
71772;BME280;59606;52.138;5.424;2023-04-07T04:19:45;101613.09;;;7.95;100.00
71772;BME280;59606;52.138;5.424;2023-04-07T04:22:12;101620.88;;;7.95;100.00
71772;BME280;59606;52.138;5.424;2023-04-07T04:24:39;101618.31;;;7.94;100.00
71772;BME280;59606;52.138;5.424;2023-04-07T04:27:07;101624.31;;;7.96;100.00
71772;BME280;59606;52.138;5.424;2023-04-07T04:29:34;101622.66;;;7.95;100.00
71772;BME280;59606;52.138;5.424;2023-04-07T04:32:00;101629.53;;;7.96;100.00
71772;BME280;59606;52.138;5.424;2023-04-07T04:34:27;101626.09;;;7.95;100.00
71772;BME280;59606;52.138;5.424;2023-04-07T04:36:53;101630.44;;;7.95;100.00
71772;BME280;59606;52.138;5.424;2023-04-07T04:39:20;101631.28;;;7.95;100.00
71772;BME280;59606;52.138;5.424;2023-04-07T04:41:46;101638.22;;;7.95;100.00
71772;BME280;59606;52.138;5.424;2023-04-07T04:44:13;101639.91;;;7.96;100.00
71772;BME280;59606;52.138;5.424;2023-04-07T04:46:39;101642.44;;;7.97;100.00
71772;BME280;59606;52.138;5.424;2023-04-07T04:49:06;101647.59;;;7.99;100.00
71772;BME280;59606;52.138;5.424;2023-04-07T04:51:32;101658.81;;;7.99;100.00
71772;BME280;59606;52.138;5.424;2023-04-07T04:53:59;101652.78;;;7.99;100.00
71772;BME280;59606;52.138;5.424;2023-04-07T04:56:25;101660.56;;;7.99;100.00
71772;BME280;59606;52.138;5.424;2023-04-07T04:58:52;101662.31;;;7.98;100.00
71772;BME280;59606;52.138;5.424;2023-04-07T05:01:18;101661.50;;;7.96;100.00
71772;BME280;59606;52.138;5.424;2023-04-07T05:03:45;101661.50;;;7.96;100.00
71772;BME280;59606;52.138;5.424;2023-04-07T05:06:12;101663.25;;;7.96;100.00
71772;BME280;59606;52.138;5.424;2023-04-07T05:08:38;101665.84;;;7.96;100.00
71772;BME280;59606;52.138;5.424;2023-04-07T05:11:05;101660.75;;;7.93;100.00
71772;BME280;59606;52.138;5.424;2023-04-07T05:13:31;101662.44;;;7.94;100.00
71772;BME280;59606;52.138;5.424;2023-04-07T05:15:57;101670.19;;;7.95;100.00
71772;BME280;59606;52.138;5.424;2023-04-07T05:18:26;101666.78;;;7.93;100.00
71772;BME280;59606;52.138;5.424;2023-04-07T05:20:52;101661.59;;;7.93;100.00
71772;BME280;59606;52.138;5.424;2023-04-07T05:23:18;101671.97;;;7.93;100.00
71772;BME280;59606;52.138;5.424;2023-04-07T05:25:45;101666.75;;;7.95;100.00
71772;BME280;59606;52.138;5.424;2023-04-07T05:28:11;101666.69;;;7.96;100.00
71772;BME280;59606;52.138;5.424;2023-04-07T05:30:38;101666.75;;;7.95;100.00
71772;BME280;59606;52.138;5.424;2023-04-07T05:33:04;101670.22;;;7.94;100.00
71772;BME280;59606;52.138;5.424;2023-04-07T05:35:31;101675.38;;;7.95;100.00
71772;BME280;59606;52.138;5.424;2023-04-07T05:37:57;101674.47;;;7.96;100.00
71772;BME280;59606;52.138;5.424;2023-04-07T05:40:24;101683.06;;;7.98;100.00
71772;BME280;59606;52.138;5.424;2023-04-07T05:42:50;101674.38;;;7.99;100.00
71772;BME280;59606;52.138;5.424;2023-04-07T05:45:17;101677.88;;;7.98;100.00
71772;BME280;59606;52.138;5.424;2023-04-07T05:47:43;101678.72;;;7.99;100.00
71772;BME280;59606;52.138;5.424;2023-04-07T05:50:12;101680.47;;;7.98;100.00
71772;BME280;59606;52.138;5.424;2023-04-07T05:52:39;101682.16;;;7.99;100.00
71772;BME280;59606;52.138;5.424;2023-04-07T05:55:06;101680.47;;;7.98;100.00
71772;BME280;59606;52.138;5.424;2023-04-07T05:57:33;101686.50;;;7.99;100.00
71772;BME280;59606;52.138;5.424;2023-04-07T06:00:00;101687.34;;;7.99;100.00
71772;BME280;59606;52.138;5.424;2023-04-07T06:02:26;101693.38;;;8.00;100.00
71772;BME280;59606;52.138;5.424;2023-04-07T06:04:53;101689.03;;;8.00;100.00
71772;BME280;59606;52.138;5.424;2023-04-07T06:07:19;101693.38;;;8.01;100.00
71772;BME280;59606;52.138;5.424;2023-04-07T06:09:46;101695.06;;;8.01;100.00
71772;BME280;59606;52.138;5.424;2023-04-07T06:12:13;101706.38;;;8.00;100.00
71772;BME280;59606;52.138;5.424;2023-04-07T06:14:40;101699.44;;;8.00;100.00
71772;BME280;59606;52.138;5.424;2023-04-07T06:17:06;101706.38;;;8.00;100.00
71772;BME280;59606;52.138;5.424;2023-04-07T06:19:33;101702.09;;;7.99;100.00
71772;BME280;59606;52.138;5.424;2023-04-07T06:22:01;101709.03;;;7.98;100.00
71772;BME280;59606;52.138;5.424;2023-04-07T06:24:27;101708.97;;;8.00;100.00
71772;BME280;59606;52.138;5.424;2023-04-07T06:26:54;101712.28;;;8.05;100.00
71772;BME280;59606;52.138;5.424;2023-04-07T06:29:22;101714.81;;;8.07;100.00
71772;BME280;59606;52.138;5.424;2023-04-07T06:31:48;101706.19;;;8.06;100.00
71772;BME280;59606;52.138;5.424;2023-04-07T06:34:16;101713.97;;;8.06;100.00
71772;BME280;59606;52.138;5.424;2023-04-07T06:36:43;101719.09;;;8.08;100.00
71772;BME280;59606;52.138;5.424;2023-04-07T06:39:10;101716.50;;;8.08;100.00
71772;BME280;59606;52.138;5.424;2023-04-07T06:41:37;101713.06;;;8.07;100.00
71772;BME280;59606;52.138;5.424;2023-04-07T06:44:04;101723.41;;;8.09;100.00
71772;BME280;59606;52.138;5.424;2023-04-07T06:46:33;101725.84;;;8.13;100.00
71772;BME280;59606;52.138;5.424;2023-04-07T06:49:00;101723.19;;;8.16;100.00
71772;BME280;59606;52.138;5.424;2023-04-07T06:51:26;101727.38;;;8.20;100.00
71772;BME280;59606;52.138;5.424;2023-04-07T06:53:53;101728.94;;;8.26;100.00
71772;BME280;59606;52.138;5.424;2023-04-07T06:56:21;101735.72;;;8.30;100.00
71772;BME280;59606;52.138;5.424;2023-04-07T06:58:48;101739.91;;;8.34;100.00
71772;BME280;59606;52.138;5.424;2023-04-07T07:01:14;101733.75;;;8.38;100.00
71772;BME280;59606;52.138;5.424;2023-04-07T07:03:41;101735.38;;;8.42;100.00
71772;BME280;59606;52.138;5.424;2023-04-07T07:06:08;101737.88;;;8.45;100.00
71772;BME280;59606;52.138;5.424;2023-04-07T07:08:34;101743.88;;;8.47;100.00
71772;BME280;59606;52.138;5.424;2023-04-07T07:11:01;101747.28;;;8.49;100.00
71772;BME280;59606;52.138;5.424;2023-04-07T07:13:27;101748.19;;;8.48;100.00
71772;BME280;59606;52.138;5.424;2023-04-07T07:15:54;101745.47;;;8.52;100.00
71772;BME280;59606;52.138;5.424;2023-04-07T07:18:21;101749.81;;;8.51;100.00
71772;BME280;59606;52.138;5.424;2023-04-07T07:20:47;101740.22;;;8.53;100.00
71772;BME280;59606;52.138;5.424;2023-04-07T07:23:14;101743.59;;;8.57;100.00
71772;BME280;59606;52.138;5.424;2023-04-07T07:25:40;101753.78;;;8.63;100.00
71772;BME280;59606;52.138;5.424;2023-04-07T07:28:07;101759.81;;;8.63;100.00
71772;BME280;59606;52.138;5.424;2023-04-07T07:30:34;101757.13;;;8.66;100.00
71772;BME280;59606;52.138;5.424;2023-04-07T07:33:01;101764.09;;;8.64;100.00
71772;BME280;59606;52.138;5.424;2023-04-07T07:35:28;101766.72;;;8.64;100.00
71772;BME280;59606;52.138;5.424;2023-04-07T07:37:54;101767.63;;;8.63;100.00
71772;BME280;59606;52.138;5.424;2023-04-07T07:40:21;101770.38;;;8.59;100.00
71772;BME280;59606;52.138;5.424;2023-04-07T07:42:48;101767.88;;;8.56;100.00
71772;BME280;59606;52.138;5.424;2023-04-07T07:45:14;101770.47;;;8.56;100.00
71772;BME280;59606;52.138;5.424;2023-04-07T07:47:42;101773.81;;;8.59;100.00
71772;BME280;59606;52.138;5.424;2023-04-07T07:50:09;101774.59;;;8.61;100.00
71772;BME280;59606;52.138;5.424;2023-04-07T07:52:36;101784.88;;;8.64;100.00
71772;BME280;59606;52.138;5.424;2023-04-07T07:55:03;101782.09;;;8.70;100.00
71772;BME280;59606;52.138;5.424;2023-04-07T07:57:29;101786.34;;;8.73;100.00
71772;BME280;59606;52.138;5.424;2023-04-07T07:59:57;101777.63;;;8.76;100.00
71772;BME280;59606;52.138;5.424;2023-04-07T08:02:24;101788.78;;;8.78;100.00
71772;BME280;59606;52.138;5.424;2023-04-07T08:04:56;101783.50;;;8.81;100.00
71772;BME280;59606;52.138;5.424;2023-04-07T08:07:23;101792.16;;;8.81;100.00
71772;BME280;59606;52.138;5.424;2023-04-07T08:09:49;101790.34;;;8.83;100.00
71772;BME280;59606;52.138;5.424;2023-04-07T08:12:16;101795.50;;;8.85;100.00
71772;BME280;59606;52.138;5.424;2023-04-07T08:14:43;101790.25;;;8.86;100.00
71772;BME280;59606;52.138;5.424;2023-04-07T08:17:09;101795.41;;;8.88;100.00
71772;BME280;59606;52.138;5.424;2023-04-07T08:19:36;101797.13;;;8.89;100.00
71772;BME280;59606;52.138;5.424;2023-04-07T08:22:02;101797.06;;;8.90;100.00
71772;BME280;59606;52.138;5.424;2023-04-07T08:24:29;101805.66;;;8.92;100.00
71772;BME280;59606;52.138;5.424;2023-04-07T08:26:55;101806.44;;;8.94;100.00
71772;BME280;59606;52.138;5.424;2023-04-07T08:29:22;101804.50;;;9.01;100.00
71772;BME280;59606;52.138;5.424;2023-04-07T08:31:49;101801.75;;;9.06;100.00
71772;BME280;59606;52.138;5.424;2023-04-07T08:34:15;101808.56;;;9.10;100.00
71772;BME280;59606;52.138;5.424;2023-04-07T08:36:42;101814.41;;;9.16;100.00
71772;BME280;59606;52.138;5.424;2023-04-07T08:39:09;101814.44;;;9.15;100.00
71772;BME280;59606;52.138;5.424;2023-04-07T08:41:37;101804.75;;;9.20;99.99
71772;BME280;59606;52.138;5.424;2023-04-07T08:44:05;101807.03;;;9.29;100.00
71772;BME280;59606;52.138;5.424;2023-04-07T08:46:32;101816.00;;;9.45;100.00
71772;BME280;59606;52.138;5.424;2023-04-07T08:49:00;101819.22;;;9.52;98.65
71772;BME280;59606;52.138;5.424;2023-04-07T08:51:31;101816.63;;;9.52;97.94
71772;BME280;59606;52.138;5.424;2023-04-07T08:54:08;101815.59;;;9.58;97.23
71772;BME280;59606;52.138;5.424;2023-04-07T08:56:39;101825.22;;;9.56;96.16
71772;BME280;59606;52.138;5.424;2023-04-07T08:59:09;101822.72;;;9.53;95.67
71772;BME280;59606;52.138;5.424;2023-04-07T09:01:36;101829.72;;;9.51;95.09
71772;BME280;59606;52.138;5.424;2023-04-07T09:04:05;101834.06;;;9.50;95.37
71772;BME280;59606;52.138;5.424;2023-04-07T09:06:35;101835.75;;;9.51;95.46
71772;BME280;59606;52.138;5.424;2023-04-07T09:09:03;101835.66;;;9.54;95.39
71772;BME280;59606;52.138;5.424;2023-04-07T09:11:37;101838.97;;;9.59;95.29
71772;BME280;59606;52.138;5.424;2023-04-07T09:14:05;101849.09;;;9.67;94.97
71772;BME280;59606;52.138;5.424;2023-04-07T09:16:31;101848.97;;;9.70;94.67
71772;BME280;59606;52.138;5.424;2023-04-07T09:18:58;101843.78;;;9.70;94.46
71772;BME280;59606;52.138;5.424;2023-04-07T09:21:25;101845.16;;;9.80;94.81
71772;BME280;59606;52.138;5.424;2023-04-07T09:23:54;101846.56;;;9.89;94.38
71772;BME280;59606;52.138;5.424;2023-04-07T09:26:26;101843.84;;;9.92;94.23
71772;BME280;59606;52.138;5.424;2023-04-07T09:28:58;101838.53;;;9.95;94.39
71772;BME280;59606;52.138;5.424;2023-04-07T09:31:49;101837.66;;;9.96;93.89
71772;BME280;59606;52.138;5.424;2023-04-07T09:34:25;101848.06;;;9.96;93.92
71772;BME280;59606;52.138;5.424;2023-04-07T09:36:54;101843.00;;;9.91;92.23
71772;BME280;59606;52.138;5.424;2023-04-07T09:39:20;101847.53;;;9.86;92.40
71772;BME280;59606;52.138;5.424;2023-04-07T09:41:47;101843.31;;;9.82;93.23
71772;BME280;59606;52.138;5.424;2023-04-07T09:44:14;101843.50;;;9.78;92.12
71772;BME280;59606;52.138;5.424;2023-04-07T09:46:54;101854.84;;;9.75;92.07
71772;BME280;59606;52.138;5.424;2023-04-07T09:49:23;101850.56;;;9.74;91.89
71772;BME280;59606;52.138;5.424;2023-04-07T09:54:33;101861.69;;;9.79;91.72
71772;BME280;59606;52.138;5.424;2023-04-07T09:57:04;101845.81;;;9.85;92.10
71772;BME280;59606;52.138;5.424;2023-04-07T09:59:32;101847.44;;;9.89;91.72
71772;BME280;59606;52.138;5.424;2023-04-07T10:01:59;101855.25;;;9.89;90.69
71772;BME280;59606;52.138;5.424;2023-04-07T10:04:26;101863.16;;;9.86;90.96
71772;BME280;59606;52.138;5.424;2023-04-07T10:06:56;101855.13;;;9.93;91.03
71772;BME280;59606;52.138;5.424;2023-04-07T10:09:24;101855.06;;;9.94;90.28
71772;BME280;59606;52.138;5.424;2023-04-07T10:11:52;101855.88;;;9.96;90.59
71772;BME280;59606;52.138;5.424;2023-04-07T10:14:21;101861.75;;;10.01;90.85
71772;BME280;59606;52.138;5.424;2023-04-07T10:16:49;101859.16;;;10.01;90.67
71772;BME280;59606;52.138;5.424;2023-04-07T10:19:18;101864.31;;;10.03;90.36
71772;BME280;59606;52.138;5.424;2023-04-07T10:21:47;101865.19;;;10.02;90.20
71772;BME280;59606;52.138;5.424;2023-04-07T10:24:58;101869.75;;;9.97;89.58
71772;BME280;59606;52.138;5.424;2023-04-07T10:27:46;101869.78;;;9.95;90.08
71772;BME280;59606;52.138;5.424;2023-04-07T10:30:29;101874.34;;;9.88;89.35
71772;BME280;59606;52.138;5.424;2023-04-07T10:32:56;101877.88;;;9.87;89.25
71772;BME280;59606;52.138;5.424;2023-04-07T10:35:24;101878.66;;;9.89;89.74
71772;BME280;59606;52.138;5.424;2023-04-07T10:40:34;101885.66;;;9.87;90.00
71772;BME280;59606;52.138;5.424;2023-04-07T10:43:01;101886.47;;;9.89;89.65
71772;BME280;59606;52.138;5.424;2023-04-07T10:48:15;101886.38;;;9.93;89.69
71772;BME280;59606;52.138;5.424;2023-04-07T10:50:44;101902.88;;;9.91;88.44
71772;BME280;59606;52.138;5.424;2023-04-07T10:53:12;101897.63;;;9.93;89.58
71772;BME280;59606;52.138;5.424;2023-04-07T10:58:23;101902.34;;;10.07;89.71
71772;BME280;59606;52.138;5.424;2023-04-07T11:03:23;101892.81;;;10.06;89.49
71772;BME280;59606;52.138;5.424;2023-04-07T11:05:50;101891.13;;;10.05;89.26
71772;BME280;59606;52.138;5.424;2023-04-07T11:08:36;101900.97;;;9.97;87.86
71772;BME280;59606;52.138;5.424;2023-04-07T11:11:04;101904.69;;;9.89;87.96
71772;BME280;59606;52.138;5.424;2023-04-07T11:13:46;101909.31;;;9.81;87.70
71772;BME280;59606;52.138;5.424;2023-04-07T11:16:15;101905.13;;;9.77;87.40
71772;BME280;59606;52.138;5.424;2023-04-07T11:18:44;101906.81;;;9.78;87.78
71772;BME280;59606;52.138;5.424;2023-04-07T11:21:17;101907.44;;;9.85;87.50
71772;BME280;59606;52.138;5.424;2023-04-07T11:23:45;101911.53;;;9.92;87.43
71772;BME280;59606;52.138;5.424;2023-04-07T11:26:14;101908.69;;;10.00;87.22
71772;BME280;59606;52.138;5.424;2023-04-07T11:28:48;101914.41;;;10.09;86.96
71772;BME280;59606;52.138;5.424;2023-04-07T11:33:54;101913.28;;;10.17;86.08
71772;BME280;59606;52.138;5.424;2023-04-07T11:36:32;101914.06;;;10.19;86.63
71772;BME280;59606;52.138;5.424;2023-04-07T11:39:00;101910.41;;;10.24;86.55
71772;BME280;59606;52.138;5.424;2023-04-07T11:41:30;101918.06;;;10.29;86.62
71772;BME280;59606;52.138;5.424;2023-04-07T11:44:11;101923.16;;;10.32;86.44
71772;BME280;59606;52.138;5.424;2023-04-07T11:46:57;101918.13;;;10.27;86.19
71772;BME280;59606;52.138;5.424;2023-04-07T11:49:26;101914.63;;;10.28;86.15
71772;BME280;59606;52.138;5.424;2023-04-07T11:52:01;101923.97;;;10.34;85.96
71772;BME280;59606;52.138;5.424;2023-04-07T11:54:41;101925.56;;;10.38;86.59
71772;BME280;59606;52.138;5.424;2023-04-07T11:57:09;101926.28;;;10.42;85.76
71772;BME280;59606;52.138;5.424;2023-04-07T11:59:39;101929.84;;;10.39;85.20
71772;BME280;59606;52.138;5.424;2023-04-07T12:02:06;101930.72;;;10.40;85.51
71772;BME280;59606;52.138;5.424;2023-04-07T12:04:33;101929.69;;;10.44;85.04
71772;BME280;59606;52.138;5.424;2023-04-07T12:07:10;101934.91;;;10.44;85.03
71772;BME280;59606;52.138;5.424;2023-04-07T12:09:37;101938.25;;;10.47;84.79
71772;BME280;59606;52.138;5.424;2023-04-07T12:12:05;101940.84;;;10.47;85.09
71772;BME280;59606;52.138;5.424;2023-04-07T12:14:33;101941.53;;;10.52;84.79
71772;BME280;59606;52.138;5.424;2023-04-07T12:17:00;101950.03;;;10.57;84.70
71772;BME280;59606;52.138;5.424;2023-04-07T12:19:30;101949.13;;;10.58;84.57
71772;BME280;59606;52.138;5.424;2023-04-07T12:21:58;101958.63;;;10.59;84.50
71772;BME280;59606;52.138;5.424;2023-04-07T12:24:25;101950.88;;;10.58;83.83
71772;BME280;59606;52.138;5.424;2023-04-07T12:26:52;101951.72;;;10.58;83.47
71772;BME280;59606;52.138;5.424;2023-04-07T12:29:18;101951.56;;;10.63;83.24
71772;BME280;59606;52.138;5.424;2023-04-07T12:31:45;101956.59;;;10.68;83.49
71772;BME280;59606;52.138;5.424;2023-04-07T12:34:16;101953.88;;;10.71;83.54
71772;BME280;59606;52.138;5.424;2023-04-07T12:36:42;101955.53;;;10.73;83.91
71772;BME280;59606;52.138;5.424;2023-04-07T12:39:10;101959.03;;;10.72;83.74
71772;BME280;59606;52.138;5.424;2023-04-07T12:41:36;101956.41;;;10.72;84.00
71772;BME280;59606;52.138;5.424;2023-04-07T12:44:04;101956.53;;;10.69;84.27
71772;BME280;59606;52.138;5.424;2023-04-07T12:46:31;101961.81;;;10.68;84.07
71772;BME280;59606;52.138;5.424;2023-04-07T12:48:57;101961.81;;;10.68;84.04
71772;BME280;59606;52.138;5.424;2023-04-07T12:51:24;101962.00;;;10.63;83.64
71772;BME280;59606;52.138;5.424;2023-04-07T12:53:51;101960.38;;;10.59;83.74
71772;BME280;59606;52.138;5.424;2023-04-07T12:56:19;101967.22;;;10.63;83.37
71772;BME280;59606;52.138;5.424;2023-04-07T12:58:47;101972.41;;;10.63;83.89
71772;BME280;59606;52.138;5.424;2023-04-07T13:01:14;101975.88;;;10.64;84.57
71772;BME280;59606;52.138;5.424;2023-04-07T13:03:42;101975.88;;;10.64;83.35
71772;BME280;59606;52.138;5.424;2023-04-07T13:06:09;101975.91;;;10.62;83.56
71772;BME280;59606;52.138;5.424;2023-04-07T13:08:36;101977.50;;;10.66;84.48
71772;BME280;59606;52.138;5.424;2023-04-07T13:11:03;101982.78;;;10.65;83.73
71772;BME280;59606;52.138;5.424;2023-04-07T13:13:30;101977.63;;;10.63;84.00
71772;BME280;59606;52.138;5.424;2023-04-07T13:15:57;101982.03;;;10.61;83.36
71772;BME280;59606;52.138;5.424;2023-04-07T13:18:23;101982.22;;;10.56;83.36
71772;BME280;59606;52.138;5.424;2023-04-07T13:20:50;101989.34;;;10.51;83.92